createdAt,value
2023-05-14T00:00:31.034Z,100914.06
2023-05-14T00:02:57.806Z,100916.19
2023-05-14T00:05:24.643Z,100916.69
2023-05-14T00:07:51.172Z,100909.88
2023-05-14T00:10:19.219Z,100912.47
2023-05-14T00:12:45.813Z,100913.44
2023-05-14T00:15:12.858Z,100915.09
2023-05-14T00:17:39.490Z,100915.09
2023-05-14T00:20:07.391Z,100911.78
2023-05-14T00:22:34.865Z,100912.25
2023-05-14T00:25:01.388Z,100908.91
2023-05-14T00:27:27.933Z,100908.09
2023-05-14T00:29:54.524Z,100899.53
2023-05-14T00:32:21.204Z,100904.75
2023-05-14T00:34:47.759Z,100902.88
2023-05-14T00:37:14.324Z,100898.91
2023-05-14T00:39:41.082Z,100901.44
2023-05-14T00:42:07.664Z,100892.88
2023-05-14T00:44:34.258Z,100885.94
2023-05-14T00:47:02.286Z,100897.97
2023-05-14T00:49:29.365Z,100883.22
2023-05-14T00:51:59.139Z,100897.00
2023-05-14T00:54:26.179Z,100886.53
2023-05-14T00:56:53.102Z,100890.81
2023-05-14T00:59:19.689Z,100895.09
2023-05-14T01:01:46.565Z,100885.56
2023-05-14T01:04:13.460Z,100893.28
2023-05-14T01:06:58.433Z,100891.97
2023-05-14T01:09:50.486Z,100894.94
2023-05-14T01:12:39.640Z,100893.63
2023-05-14T01:15:19.509Z,100897.88
2023-05-14T01:17:52.107Z,100892.53
2023-05-14T01:20:18.927Z,100890.47
2023-05-14T01:22:45.590Z,100897.00
2023-05-14T01:25:12.253Z,100886.78
2023-05-14T01:27:48.981Z,100889.28
2023-05-14T01:30:36.195Z,100889.28
2023-05-14T01:33:06.763Z,100894.75
2023-05-14T01:35:33.871Z,100881.41
2023-05-14T01:38:03.551Z,100883.09
2023-05-14T01:40:32.004Z,100892.78
2023-05-14T01:42:59.245Z,100885.22
2023-05-14T01:45:26.348Z,100880.22
2023-05-14T01:47:54.359Z,100874.16
2023-05-14T01:50:21.267Z,100877.94
2023-05-14T01:52:48.564Z,100877.69
2023-05-14T01:55:15.971Z,100869.25
2023-05-14T01:57:42.488Z,100878.25
2023-05-14T02:00:09.502Z,100873.28
2023-05-14T02:02:36.099Z,100872.22
2023-05-14T02:05:03.903Z,100872.91
2023-05-14T02:07:32.247Z,100868.75
2023-05-14T02:09:58.812Z,100868.38
2023-05-14T02:12:26.447Z,100857.66
2023-05-14T02:14:52.990Z,100853.72
2023-05-14T02:17:20.606Z,100861.09
2023-05-14T02:19:47.353Z,100847.06
2023-05-14T02:22:15.104Z,100856.69
2023-05-14T02:24:41.693Z,100858.00
2023-05-14T02:27:08.266Z,100855.09
2023-05-14T02:29:34.838Z,100851.78
2023-05-14T02:32:01.348Z,100852.22
2023-05-14T02:34:27.856Z,100848.53
2023-05-14T02:36:54.377Z,100849.81
2023-05-14T02:39:20.952Z,100847.06
2023-05-14T02:41:47.546Z,100846.09
2023-05-14T02:44:14.148Z,100848.59
2023-05-14T02:46:40.798Z,100848.00
2023-05-14T02:49:07.391Z,100840.72
2023-05-14T02:51:33.995Z,100840.13
2023-05-14T02:54:00.661Z,100840.94
2023-05-14T02:56:27.190Z,100848.31
2023-05-14T02:58:53.696Z,100835.13
2023-05-14T03:01:20.557Z,100841.06
2023-05-14T03:03:47.665Z,100830.81
2023-05-14T03:06:14.671Z,100828.75
2023-05-14T03:08:41.754Z,100829.19
2023-05-14T03:11:08.304Z,100836.34
2023-05-14T03:13:34.845Z,100827.16
2023-05-14T03:16:01.418Z,100824.63
2023-05-14T03:18:30.721Z,100822.38
2023-05-14T03:20:57.346Z,100821.75
2023-05-14T03:23:23.924Z,100831.84
2023-05-14T03:25:51.045Z,100824.94
2023-05-14T03:28:17.572Z,100828.72
2023-05-14T03:30:44.167Z,100824.78
2023-05-14T03:33:13.867Z,100831.28
2023-05-14T03:35:40.392Z,100827.34
2023-05-14T03:38:07.627Z,100836.97
2023-05-14T03:40:34.204Z,100831.13
2023-05-14T03:43:00.915Z,100827.34
2023-05-14T03:45:28.810Z,100829.03
2023-05-14T03:47:56.771Z,100829.94
2023-05-14T03:50:25.769Z,100837.06
2023-05-14T03:52:52.848Z,100837.34
2023-05-14T03:55:22.469Z,100842.19
2023-05-14T03:57:49.338Z,100848.88
2023-05-14T04:00:16.143Z,100850.50
2023-05-14T04:02:42.872Z,100833.78
2023-05-14T04:05:11.944Z,100841.75
2023-05-14T04:07:38.473Z,100843.47
2023-05-14T04:10:05.823Z,100845.91
2023-05-14T04:12:32.322Z,100839.09
2023-05-14T04:14:58.956Z,100838.31
2023-05-14T04:17:26.043Z,100831.84
2023-05-14T04:19:52.701Z,100834.91
2023-05-14T04:22:19.239Z,100830.72
2023-05-14T04:24:46.087Z,100829.91
2023-05-14T04:27:19.694Z,100839.91
2023-05-14T04:29:46.217Z,100838.22
2023-05-14T04:32:12.830Z,100833.97
2023-05-14T04:34:40.164Z,100834.13
2023-05-14T04:37:07.161Z,100834.06
2023-05-14T04:39:33.892Z,100837.19
2023-05-14T04:42:00.494Z,100823.69
2023-05-14T04:44:27.270Z,100834.31
2023-05-14T04:46:53.778Z,100832.38
2023-05-14T04:49:21.141Z,100835.00
2023-05-14T04:51:48.381Z,100832.66
2023-05-14T04:54:14.993Z,100831.75
2023-05-14T04:56:41.675Z,100840.13
2023-05-14T04:59:08.245Z,100849.91
2023-05-14T05:01:34.871Z,100840.44
2023-05-14T05:04:01.567Z,100847.47
2023-05-14T05:06:28.175Z,100846.19
2023-05-14T05:08:55.319Z,100866.19
2023-05-14T05:11:21.872Z,100862.31
2023-05-14T05:13:48.426Z,100851.16
2023-05-14T05:16:15.018Z,100861.31
2023-05-14T05:18:41.619Z,100853.28
2023-05-14T05:21:08.146Z,100857.34
2023-05-14T05:23:34.636Z,100859.28
2023-05-14T05:26:01.285Z,100863.34
2023-05-14T05:28:27.818Z,100861.34
2023-05-14T05:30:54.382Z,100858.91
2023-05-14T05:33:21.065Z,100860.69
2023-05-14T05:35:48.393Z,100860.34
2023-05-14T05:38:15.819Z,100861.06
2023-05-14T05:40:42.459Z,100860.47
2023-05-14T05:43:09.036Z,100860.75
2023-05-14T05:45:35.535Z,100857.41
2023-05-14T05:48:02.185Z,100854.09
2023-05-14T05:50:28.639Z,100852.53
2023-05-14T05:52:55.145Z,100847.31
2023-05-14T05:55:21.792Z,100855.16
2023-05-14T05:57:48.290Z,100856.81
2023-05-14T06:00:15.396Z,100847.38
2023-05-14T06:02:42.084Z,100856.47
2023-05-14T06:05:11.771Z,100857.19
2023-05-14T06:07:38.671Z,100850.25
2023-05-14T06:10:06.560Z,100858.44
2023-05-14T06:12:33.115Z,100864.94
2023-05-14T06:15:01.559Z,100858.66
2023-05-14T06:17:28.129Z,100860.81
2023-05-14T06:19:54.648Z,100865.66
2023-05-14T06:22:21.196Z,100863.84
2023-05-14T06:24:48.124Z,100867.50
2023-05-14T06:27:14.713Z,100861.03
2023-05-14T06:29:41.157Z,100871.59
2023-05-14T06:32:08.183Z,100874.50
2023-05-14T06:34:34.817Z,100866.59
2023-05-14T06:37:02.942Z,100864.00
2023-05-14T06:39:29.627Z,100868.75
2023-05-14T06:41:56.137Z,100874.63
2023-05-14T06:44:22.709Z,100870.97
2023-05-14T06:46:49.141Z,100876.34
2023-05-14T06:49:15.716Z,100865.44
2023-05-14T06:51:42.317Z,100861.09
2023-05-14T06:54:08.837Z,100860.06
2023-05-14T06:56:35.264Z,100866.72
2023-05-14T06:59:01.838Z,100859.09
2023-05-14T07:01:28.346Z,100858.66
2023-05-14T07:03:54.988Z,100857.63
2023-05-14T07:06:21.469Z,100867.09
2023-05-14T07:08:48.264Z,100856.66
2023-05-14T07:11:15.396Z,100857.44
2023-05-14T07:13:42.984Z,100853.94
2023-05-14T07:16:12.518Z,100852.88
2023-05-14T07:18:39.281Z,100858.47
2023-05-14T07:21:06.851Z,100857.44
2023-05-14T07:23:36.527Z,100852.84
2023-05-14T07:26:04.026Z,100859.06
2023-05-14T07:28:30.733Z,100856.94
2023-05-14T07:30:57.718Z,100840.13
2023-05-14T07:37:47.996Z,100855.75
2023-05-14T07:40:14.844Z,100840.84
2023-05-14T07:42:41.514Z,100844.75
2023-05-14T07:45:09.759Z,100851.47
2023-05-14T07:47:37.949Z,100857.00
2023-05-14T07:50:06.246Z,100837.72
2023-05-14T07:52:33.097Z,100839.19
2023-05-14T07:55:01.577Z,100843.94
2023-05-14T07:57:28.210Z,100824.09
2023-05-14T07:59:54.864Z,100831.03
2023-05-14T08:02:21.920Z,100838.78
2023-05-14T08:04:48.688Z,100835.25
2023-05-14T08:07:15.559Z,100830.31
2023-05-14T08:09:43.322Z,100833.09
2023-05-14T08:12:13.107Z,100840.38
2023-05-14T08:14:39.665Z,100831.59
2023-05-14T08:17:06.321Z,100828.56
2023-05-14T08:19:33.239Z,100833.28
2023-05-14T08:21:59.768Z,100829.97
2023-05-14T08:24:26.322Z,100838.00
2023-05-14T08:26:53.190Z,100839.09
2023-05-14T08:29:19.704Z,100841.31
2023-05-14T08:31:46.178Z,100828.91
2023-05-14T08:34:12.730Z,100830.88
2023-05-14T08:36:39.461Z,100833.38
2023-05-14T08:39:07.862Z,100825.38
2023-05-14T08:41:34.913Z,100828.16
2023-05-14T08:44:18.375Z,100823.44
2023-05-14T08:46:45.571Z,100830.09
2023-05-14T08:49:19.275Z,100826.78
2023-05-14T08:51:49.291Z,100824.00
2023-05-14T08:54:18.008Z,100825.09
2023-05-14T08:56:46.621Z,100821.19
2023-05-14T08:59:13.400Z,100815.91
2023-05-14T09:01:46.736Z,100816.72
2023-05-14T09:04:19.985Z,100822.72
2023-05-14T09:06:49.656Z,100819.31
2023-05-14T09:09:16.680Z,100819.84
2023-05-14T09:11:46.096Z,100811.53
2023-05-14T09:14:12.838Z,100806.53
2023-05-14T09:16:42.738Z,100814.75
2023-05-14T09:19:09.690Z,100820.69
2023-05-14T09:21:38.349Z,100816.72
2023-05-14T09:24:05.252Z,100816.59
2023-05-14T09:26:33.136Z,100809.91
2023-05-14T09:29:04.023Z,100805.97
2023-05-14T09:31:32.243Z,100803.59
2023-05-14T09:33:59.837Z,100794.47
2023-05-14T09:36:29.565Z,100786.88
2023-05-14T09:38:59.233Z,100797.13
2023-05-14T09:41:25.893Z,100788.19
2023-05-14T09:43:53.486Z,100789.03
2023-05-14T09:46:20.076Z,100798.28
2023-05-14T09:48:46.688Z,100797.59
2023-05-14T09:51:13.994Z,100790.88
2023-05-14T09:53:41.758Z,100796.31
2023-05-14T09:56:08.967Z,100789.47
2023-05-14T09:58:35.758Z,100786.78
2023-05-14T10:01:02.915Z,100779.66
2023-05-14T10:03:30.718Z,100776.94
2023-05-14T10:06:05.188Z,100783.38
2023-05-14T10:08:34.955Z,100789.28
2023-05-14T10:11:06.131Z,100778.59
2023-05-14T10:13:38.120Z,100772.63
2023-05-14T10:16:29.361Z,100769.44
2023-05-14T10:19:03.299Z,100768.00
2023-05-14T10:21:33.258Z,100776.84
2023-05-14T10:24:00.411Z,100771.31
2023-05-14T10:26:28.082Z,100769.06
2023-05-14T10:28:56.164Z,100769.66
2023-05-14T10:31:47.699Z,100762.66
2023-05-14T10:34:39.705Z,100761.41
2023-05-14T10:37:26.296Z,100758.22
2023-05-14T10:39:58.398Z,100760.53
2023-05-14T10:42:33.345Z,100758.22
2023-05-14T10:45:02.159Z,100761.25
2023-05-14T10:47:29.809Z,100751.56
2023-05-14T10:49:59.080Z,100752.94
2023-05-14T10:52:26.631Z,100752.44
2023-05-14T10:54:58.517Z,100748.53
2023-05-14T10:57:32.582Z,100735.16
2023-05-14T11:00:03.338Z,100744.25
2023-05-14T11:02:41.448Z,100742.66
2023-05-14T11:05:11.329Z,100744.66
2023-05-14T11:07:40.130Z,100724.81
2023-05-14T11:10:08.375Z,100730.34
2023-05-14T11:12:36.625Z,100732.75
2023-05-14T11:15:06.373Z,100727.53
2023-05-14T11:17:35.049Z,100719.16
2023-05-14T11:20:02.162Z,100717.53
2023-05-14T11:22:28.753Z,100708.69
2023-05-14T11:24:55.273Z,100707.00
2023-05-14T11:27:23.194Z,100710.47
2023-05-14T11:29:50.446Z,100710.94
2023-05-14T11:32:17.935Z,100701.44
2023-05-14T11:34:46.064Z,100713.56
2023-05-14T11:37:14.926Z,100703.97
2023-05-14T11:39:49.414Z,100694.41
2023-05-14T11:42:18.772Z,100683.41
2023-05-14T11:44:50.314Z,100675.50
2023-05-14T11:47:18.476Z,100683.03
2023-05-14T11:49:45.630Z,100684.63
2023-05-14T11:52:15.415Z,100678.44
2023-05-14T11:54:45.741Z,100678.69
2023-05-14T11:57:14.642Z,100675.84
2023-05-14T11:59:41.336Z,100673.88
2023-05-14T12:02:12.700Z,100672.50
2023-05-14T12:04:40.492Z,100674.00
2023-05-14T12:07:12.450Z,100668.50
2023-05-14T12:09:49.060Z,100669.50
2023-05-14T12:12:18.950Z,100672.09
2023-05-14T12:14:46.765Z,100663.97
2023-05-14T12:17:23.478Z,100658.34
2023-05-14T12:19:51.928Z,100649.41
2023-05-14T12:22:20.991Z,100654.69
2023-05-14T12:24:58.739Z,100641.59
2023-05-14T12:27:26.804Z,100649.16
2023-05-14T12:30:09.103Z,100641.28
2023-05-14T12:32:46.730Z,100639.66
2023-05-14T12:35:13.337Z,100637.19
2023-05-14T12:37:40.113Z,100637.97
2023-05-14T12:40:11.668Z,100633.34
2023-05-14T12:42:38.229Z,100627.81
2023-05-14T12:45:08.089Z,100627.53
2023-05-14T12:47:35.171Z,100635.16
2023-05-14T12:50:02.137Z,100625.41
2023-05-14T12:52:37.492Z,100623.66
2023-05-14T12:55:09.740Z,100623.03
2023-05-14T12:57:37.249Z,100623.94
2023-05-14T13:00:07.992Z,100608.88
2023-05-14T13:02:42.368Z,100609.88
2023-05-14T13:05:10.780Z,100615.00
2023-05-14T13:07:37.657Z,100602.44
2023-05-14T13:10:05.947Z,100593.19
2023-05-14T13:12:32.834Z,100594.09
2023-05-14T13:15:00.235Z,100585.72
2023-05-14T13:17:26.912Z,100577.47
2023-05-14T13:19:53.598Z,100588.25
2023-05-14T13:22:23.131Z,100584.84
2023-05-14T13:24:49.641Z,100592.59
2023-05-14T13:27:16.268Z,100569.47
2023-05-14T13:29:42.827Z,100577.69
2023-05-14T13:32:09.369Z,100583.53
2023-05-14T13:34:36.394Z,100585.97
2023-05-14T13:37:03.003Z,100589.03
2023-05-14T13:39:29.552Z,100580.81
2023-05-14T13:41:56.964Z,100581.03
2023-05-14T13:44:23.783Z,100577.28
2023-05-14T13:46:50.571Z,100573.41
2023-05-14T13:49:17.331Z,100561.09
2023-05-14T13:51:44.170Z,100569.13
2023-05-14T13:54:10.761Z,100552.66
2023-05-14T13:56:37.258Z,100544.75
2023-05-14T13:59:04.157Z,100549.28
2023-05-14T14:01:31.124Z,100544.00
2023-05-14T14:03:57.768Z,100539.56
2023-05-14T14:06:26.254Z,100536.97
2023-05-14T14:08:53.246Z,100535.97
2023-05-14T14:11:19.828Z,100532.25
2023-05-14T14:13:46.840Z,100516.44
2023-05-14T14:16:13.560Z,100516.94
2023-05-14T14:18:40.230Z,100511.53
2023-05-14T14:21:06.852Z,100515.50
2023-05-14T14:23:33.420Z,100516.63
2023-05-14T14:26:00.622Z,100516.81
2023-05-14T14:28:27.169Z,100516.63
2023-05-14T14:30:53.736Z,100517.44
2023-05-14T14:33:20.272Z,100517.56
2023-05-14T14:35:46.825Z,100509.38
2023-05-14T14:38:13.842Z,100502.47
2023-05-14T14:40:40.368Z,100490.72
2023-05-14T14:43:06.895Z,100494.66
2023-05-14T14:45:33.457Z,100485.66
2023-05-14T14:48:41.386Z,100487.44
2023-05-14T14:51:09.369Z,100480.53
2023-05-14T14:53:37.208Z,100482.63
2023-05-14T14:56:04.084Z,100474.88
2023-05-14T14:58:31.263Z,100472.75
2023-05-14T15:00:58.430Z,100484.34
2023-05-14T15:03:25.439Z,100482.41
2023-05-14T15:05:53.668Z,100478.16
2023-05-14T15:08:21.002Z,100478.53
2023-05-14T15:10:47.605Z,100478.28
2023-05-14T15:13:14.181Z,100483.50
2023-05-14T15:15:40.754Z,100481.88
2023-05-14T15:18:07.359Z,100484.81
2023-05-14T15:20:33.994Z,100484.13
2023-05-14T15:23:00.598Z,100478.50
2023-05-14T15:25:27.441Z,100480.25
2023-05-14T15:27:53.981Z,100472.56
2023-05-14T15:30:20.783Z,100475.28
2023-05-14T15:32:47.485Z,100482.31
2023-05-14T15:35:14.139Z,100472.81
2023-05-14T15:37:42.756Z,100476.22
2023-05-14T15:40:12.367Z,100469.84
2023-05-14T15:42:43.785Z,100465.47
2023-05-14T15:45:12.629Z,100457.81
2023-05-14T15:47:39.557Z,100457.88
2023-05-14T15:50:06.948Z,100454.16
2023-05-14T15:52:34.389Z,100454.16
2023-05-14T15:55:00.968Z,100452.00
2023-05-14T15:57:27.749Z,100445.63
2023-05-14T15:59:54.498Z,100447.09
2023-05-14T16:02:21.005Z,100461.53
2023-05-14T16:04:49.559Z,100453.81
2023-05-14T16:07:16.351Z,100459.59
2023-05-14T16:09:42.876Z,100450.72
2023-05-14T16:12:09.443Z,100456.78
2023-05-14T16:14:36.303Z,100450.66
2023-05-14T16:17:02.985Z,100456.16
2023-05-14T16:19:29.526Z,100455.00
2023-05-14T16:21:56.114Z,100465.00
2023-05-14T16:24:22.658Z,100452.38
2023-05-14T16:26:49.363Z,100445.94
2023-05-14T16:29:16.212Z,100457.06
2023-05-14T16:31:43.442Z,100459.34
2023-05-14T16:34:09.976Z,100447.84
2023-05-14T16:36:36.591Z,100457.28
2023-05-14T16:41:32.985Z,100453.78
2023-05-14T16:44:00.147Z,100456.25
2023-05-14T16:46:28.364Z,100447.19
2023-05-14T16:48:55.455Z,100456.50
2023-05-14T16:51:22.012Z,100453.34
2023-05-14T16:53:48.530Z,100450.84
2023-05-14T16:56:15.058Z,100451.72
2023-05-14T16:58:41.657Z,100460.72
2023-05-14T17:01:09.874Z,100459.19
2023-05-14T17:03:37.003Z,100452.22
2023-05-14T17:06:04.742Z,100451.84
2023-05-14T17:08:33.702Z,100465.25
2023-05-14T17:11:00.348Z,100442.44
2023-05-14T17:13:26.901Z,100443.91
2023-05-14T17:15:53.554Z,100443.91
2023-05-14T17:18:20.149Z,100446.44
2023-05-14T17:20:46.720Z,100467.75
2023-05-14T17:23:13.602Z,100457.03
2023-05-14T17:25:40.368Z,100452.53
2023-05-14T17:28:06.935Z,100468.56
2023-05-14T17:30:33.501Z,100448.25
2023-05-14T17:33:00.129Z,100460.59
2023-05-14T17:35:26.906Z,100461.84
2023-05-14T17:37:53.653Z,100462.56
2023-05-14T17:40:20.191Z,100460.41
2023-05-14T17:42:46.805Z,100468.22
2023-05-14T17:45:14.608Z,100463.72
2023-05-14T17:47:41.353Z,100462.47
2023-05-14T17:50:08.387Z,100469.47
2023-05-14T17:52:34.940Z,100461.03
2023-05-14T17:55:01.536Z,100474.38
2023-05-14T17:57:28.216Z,100475.19
2023-05-14T17:59:54.763Z,100482.41
2023-05-14T18:02:21.423Z,100479.28
2023-05-14T18:04:47.914Z,100485.19
2023-05-14T18:07:14.792Z,100479.03
2023-05-14T18:09:41.347Z,100498.53
2023-05-14T18:12:08.589Z,100484.31
2023-05-14T18:14:35.520Z,100489.44
2023-05-14T18:17:02.201Z,100496.09
2023-05-14T18:19:31.175Z,100499.47
2023-05-14T18:21:59.398Z,100489.38
2023-05-14T18:24:26.349Z,100499.63
2023-05-14T18:26:53.019Z,100484.91
2023-05-14T18:29:19.545Z,100491.59
2023-05-14T18:31:46.191Z,100492.78
2023-05-14T18:34:16.671Z,100487.03
2023-05-14T18:36:43.404Z,100485.47
2023-05-14T18:39:10.044Z,100484.81
2023-05-14T18:41:36.559Z,100504.03
2023-05-14T18:44:03.148Z,100490.94
2023-05-14T18:46:29.925Z,100505.53
2023-05-14T18:48:56.652Z,100500.38
2023-05-14T18:51:23.232Z,100502.16
2023-05-14T18:53:49.754Z,100509.31
2023-05-14T18:56:19.235Z,100504.97
2023-05-14T18:58:46.449Z,100503.69
2023-05-14T19:01:13.007Z,100498.50
2023-05-14T19:03:41.685Z,100508.53
2023-05-14T19:06:08.411Z,100506.16
2023-05-14T19:08:34.948Z,100510.38
2023-05-14T19:11:01.923Z,100510.97
2023-05-14T19:13:28.724Z,100513.25
2023-05-14T19:15:55.628Z,100506.66
2023-05-14T19:18:22.295Z,100520.78
2023-05-14T19:20:48.837Z,100513.13
2023-05-14T19:23:15.500Z,100509.00
2023-05-14T19:25:42.010Z,100511.56
2023-05-14T19:28:08.584Z,100524.03
2023-05-14T19:30:35.123Z,100519.13
2023-05-14T19:33:01.676Z,100524.41
2023-05-14T19:35:28.182Z,100528.09
2023-05-14T19:37:54.820Z,100516.03
2023-05-14T19:40:21.400Z,100516.63
2023-05-14T19:42:47.904Z,100527.94
2023-05-14T19:45:14.419Z,100534.88
2023-05-14T19:47:41.788Z,100539.91
2023-05-14T19:50:08.861Z,100546.22
2023-05-14T19:52:38.184Z,100544.91
2023-05-14T19:55:05.070Z,100554.81
2023-05-14T19:57:31.579Z,100544.91
2023-05-14T19:59:58.255Z,100549.34
2023-05-14T20:02:24.856Z,100552.09
2023-05-14T20:04:51.738Z,100543.00
2023-05-14T20:07:18.447Z,100543.56
2023-05-14T20:09:45.997Z,100552.16
2023-05-14T20:12:13.366Z,100544.47
2023-05-14T20:14:41.135Z,100557.72
2023-05-14T20:17:07.694Z,100552.22
2023-05-14T20:19:34.924Z,100544.00
2023-05-14T20:22:01.478Z,100556.91
2023-05-14T20:24:28.708Z,100547.31
2023-05-14T20:26:56.944Z,100542.38
2023-05-14T20:29:23.595Z,100557.53
2023-05-14T20:31:53.837Z,100560.59
2023-05-14T20:34:20.435Z,100551.00
2023-05-14T20:36:47.044Z,100553.50
2023-05-14T20:39:14.325Z,100558.44
2023-05-14T20:41:40.970Z,100555.16
2023-05-14T20:44:07.872Z,100547.97
2023-05-14T20:46:34.543Z,100561.22
2023-05-14T20:49:04.582Z,100547.13
2023-05-14T20:51:33.078Z,100529.81
2023-05-14T20:53:59.765Z,100518.81
2023-05-14T20:56:26.795Z,100530.38
2023-05-14T20:58:53.330Z,100521.03
2023-05-14T21:01:19.904Z,100525.72
2023-05-14T21:03:46.757Z,100507.28
2023-05-14T21:06:15.180Z,100514.94
2023-05-14T21:08:41.769Z,100512.78
2023-05-14T21:11:08.719Z,100522.72
2023-05-14T21:13:35.231Z,100521.03
2023-05-14T21:16:03.554Z,100523.81
2023-05-14T21:18:32.932Z,100523.81
2023-05-14T21:21:00.010Z,100523.56
2023-05-14T21:23:26.640Z,100523.31
2023-05-14T21:25:54.944Z,100515.59
2023-05-14T21:28:22.671Z,100526.63
2023-05-14T21:30:50.852Z,100510.69
2023-05-14T21:33:18.171Z,100494.16
2023-05-14T21:35:44.758Z,100506.03
2023-05-14T21:38:11.845Z,100518.44
2023-05-14T21:40:38.354Z,100511.81
2023-05-14T21:43:04.870Z,100511.03
2023-05-14T21:45:31.524Z,100517.09
2023-05-14T21:47:58.259Z,100511.88
2023-05-14T21:50:24.859Z,100509.13
2023-05-14T21:52:51.477Z,100510.50
2023-05-14T21:55:18.015Z,100495.34
2023-05-14T21:57:44.605Z,100510.78
2023-05-14T22:00:13.259Z,100497.81
2023-05-14T22:02:39.954Z,100497.53
2023-05-14T22:05:06.746Z,100495.34
2023-05-14T22:07:33.382Z,100504.16
2023-05-14T22:09:59.996Z,100503.88
2023-05-14T22:12:26.901Z,100494.78
2023-05-14T22:14:54.805Z,100497.53
2023-05-14T22:17:21.981Z,100510.22
2023-05-14T22:19:48.563Z,100500.31
2023-05-14T22:22:15.103Z,100488.16
2023-05-14T22:24:41.695Z,100510.50
2023-05-14T22:27:08.236Z,100508.53
2023-05-14T22:29:36.717Z,100499.19
2023-05-14T22:32:07.600Z,100496.44
2023-05-14T22:34:34.105Z,100490.38
2023-05-14T22:37:00.624Z,100503.59
2023-05-14T22:39:27.213Z,100484.31
2023-05-14T22:41:55.304Z,100481.00
2023-05-14T22:44:22.958Z,100486.53
2023-05-14T22:46:50.210Z,100482.13
2023-05-14T22:49:16.770Z,100481.00
2023-05-14T22:51:43.306Z,100477.44
2023-05-14T22:54:10.770Z,100473.84
2023-05-14T22:56:37.935Z,100472.75
2023-05-14T22:59:04.738Z,100463.38
2023-05-14T23:01:31.783Z,100471.94
2023-05-14T23:03:58.432Z,100463.94
2023-05-14T23:06:25.346Z,100469.97
2023-05-14T23:08:51.911Z,100460.06
2023-05-14T23:11:18.412Z,100458.38
2023-05-14T23:13:44.847Z,100464.44
2023-05-14T23:16:11.370Z,100455.06
2023-05-14T23:18:37.925Z,100465.50
2023-05-14T23:21:04.735Z,100456.69
2023-05-14T23:23:31.332Z,100463.56
2023-05-14T23:25:57.960Z,100452.47
2023-05-14T23:28:24.598Z,100451.88
2023-05-14T23:30:51.130Z,100467.03
2023-05-14T23:33:17.651Z,100452.69
2023-05-14T23:35:44.280Z,100465.34
2023-05-14T23:38:10.901Z,100462.31
2023-05-14T23:40:37.503Z,100473.06
2023-05-14T23:43:03.963Z,100473.06
2023-05-14T23:45:30.840Z,100470.84
2023-05-14T23:47:58.805Z,100464.75
2023-05-14T23:50:25.759Z,100447.66
2023-05-14T23:52:53.219Z,100458.13
2023-05-14T23:55:20.079Z,100456.72
2023-05-14T23:57:47.415Z,100452.94
